Time;durP1;ratioP1;P1;durP2;ratioP2;P2;SDS_P1;SDS_P2;PMS_P1;PMS_P2;Temp;Humidity;BMP_temperature;BMP_pressure;BME280_temperature;BME280_humidity;BME280_pressure;Samples;Min_cycle;Max_cycle;Signal;HPM_P1;HPM_P2
2022/03/23 00:00:30;;;;;;;0.98;0.80;;;;;;;5.03;45.64;95828.03;5084513;28;20195;-77
2022/03/23 00:02:57;;;;;;;0.70;0.70;;;;;;;5.02;45.88;95821.03;5080608;28;20707;-76
2022/03/23 00:05:28;;;;;;;2.10;1.17;;;;;;;4.98;45.85;95820.75;5076694;28;20202;-73
2022/03/23 00:07:56;;;;;;;1.73;1.13;;;;;;;4.93;46.09;95816.16;5079646;28;20205;-75
2022/03/23 00:10:23;;;;;;;4.88;1.35;;;;;;;4.96;45.56;95817.50;5088739;28;20198;-76
2022/03/23 00:12:51;;;;;;;12.50;2.00;;;;;;;4.91;45.87;95810.25;5078962;28;20202;-73
2022/03/23 00:15:18;;;;;;;2.08;1.15;;;;;;;4.90;45.86;95816.69;5084090;28;20209;-76
2022/03/23 00:17:46;;;;;;;2.92;1.20;;;;;;;4.83;45.83;95818.00;5081704;28;20202;-75
2022/03/23 00:20:14;;;;;;;4.05;1.00;;;;;;;4.84;45.95;95812.38;5084147;28;20207;-78
2022/03/23 00:22:43;;;;;;;1.10;0.73;;;;;;;4.82;45.90;95806.44;5083659;28;20317;-78
2022/03/23 00:25:10;;;;;;;2.30;1.27;;;;;;;4.70;46.06;95816.59;5063230;28;20215;-78
2022/03/23 00:27:37;;;;;;;5.05;1.75;;;;;;;4.66;46.55;95820.84;5078365;28;20210;-74
2022/03/23 00:30:05;;;;;;;3.35;1.08;;;;;;;4.62;46.74;95817.09;5087706;28;20203;-75
2022/03/23 00:32:32;;;;;;;1.23;1.00;;;;;;;4.48;47.46;95810.59;5088158;28;20202;-75
2022/03/23 00:34:59;;;;;;;3.78;1.25;;;;;;;4.35;47.40;95816.41;5081535;28;20596;-76
2022/03/23 00:37:26;;;;;;;2.28;1.00;;;;;;;4.42;47.06;95816.97;5079579;28;20207;-75
2022/03/23 00:39:55;;;;;;;1.95;1.15;;;;;;;4.37;47.46;95816.97;5061601;28;20650;-75
2022/03/23 00:42:21;;;;;;;1.77;1.20;;;;;;;4.44;47.38;95809.47;5074339;28;20227;-73
2022/03/23 00:44:51;;;;;;;1.50;1.10;;;;;;;4.32;47.94;95815.06;5065604;28;20215;-74
2022/03/23 00:47:18;;;;;;;1.90;1.20;;;;;;;4.16;49.01;95811.47;5055623;28;20208;-75
2022/03/23 00:49:45;;;;;;;5.55;1.15;;;;;;;4.20;48.40;95809.06;5082587;28;20249;-77
2022/03/23 00:52:12;;;;;;;1.48;0.73;;;;;;;4.39;47.04;95809.44;5080740;28;20226;-76
2022/03/23 00:54:39;;;;;;;1.50;1.23;;;;;;;4.25;48.08;95823.31;5085609;28;20265;-75
2022/03/23 00:57:08;;;;;;;2.65;0.80;;;;;;;4.22;47.55;95813.13;5087148;28;20308;-75
2022/03/23 00:59:35;;;;;;;3.83;1.08;;;;;;;4.26;48.02;95813.38;5083637;28;20205;-76
2022/03/23 01:02:04;;;;;;;6.07;1.42;;;;;;;4.16;48.32;95824.88;5074803;28;20235;-75
2022/03/23 01:04:30;;;;;;;6.15;1.33;;;;;;;3.95;49.44;95817.75;5063240;28;20261;-76
2022/03/23 01:06:58;;;;;;;1.55;1.00;;;;;;;3.91;49.57;95827.34;5059574;28;20207;-75
2022/03/23 01:09:25;;;;;;;6.05;1.60;;;;;;;3.87;49.52;95823.56;5083670;28;20336;-75
2022/03/23 01:11:52;;;;;;;1.80;0.98;;;;;;;3.86;49.44;95819.25;5079883;28;20250;-75
2022/03/23 01:14:23;;;;;;;3.42;1.52;;;;;;;3.76;50.69;95827.22;5083323;28;20218;-75
2022/03/23 01:16:51;;;;;;;2.40;1.52;;;;;;;3.65;50.15;95820.16;5087242;28;20305;-75
2022/03/23 01:19:20;;;;;;;5.70;1.08;;;;;;;3.79;49.49;95821.34;5084035;28;20202;-76
2022/03/23 01:21:47;;;;;;;4.97;1.45;;;;;;;3.98;48.49;95825.25;5074407;28;20276;-75
2022/03/23 01:24:14;;;;;;;3.13;1.42;;;;;;;3.98;48.64;95811.84;5072257;28;20203;-75
2022/03/23 01:26:41;;;;;;;0.82;0.70;;;;;;;3.91;49.21;95811.28;5086276;28;20272;-74
2022/03/23 01:29:08;;;;;;;6.72;1.60;;;;;;;3.77;49.69;95804.72;5084913;28;20202;-75
2022/03/23 01:31:36;;;;;;;3.38;1.30;;;;;;;3.71;49.91;95803.88;5079716;28;20703;-75
2022/03/23 01:34:03;;;;;;;3.58;1.35;;;;;;;3.77;49.58;95804.72;5080700;28;20276;-75
2022/03/23 01:36:31;;;;;;;1.55;1.08;;;;;;;3.71;49.79;95800.38;5086517;28;20199;-75
2022/03/23 01:39:00;;;;;;;1.50;1.08;;;;;;;3.87;49.55;95794.06;5085333;28;20225;-75
2022/03/23 01:41:27;;;;;;;2.45;0.90;;;;;;;4.02;48.44;95796.88;5072859;28;20268;-76
2022/03/23 01:43:54;;;;;;;3.80;1.42;;;;;;;4.07;47.80;95793.44;5086624;28;20198;-74
2022/03/23 01:46:22;;;;;;;5.13;0.98;;;;;;;4.09;47.43;95792.13;5080609;28;20205;-74
2022/03/23 01:48:50;;;;;;;4.82;1.20;;;;;;;4.09;48.03;95797.47;5079488;28;20211;-73
2022/03/23 01:51:17;;;;;;;2.33;1.20;;;;;;;4.06;48.12;95795.31;5084294;28;20237;-74
2022/03/23 01:53:44;;;;;;;3.50;1.42;;;;;;;4.07;47.17;95791.56;5086339;28;20219;-74
2022/03/23 01:56:14;;;;;;;3.75;1.50;;;;;;;3.98;48.20;95793.09;5080612;28;20222;-74
2022/03/23 01:58:41;;;;;;;5.38;2.03;;;;;;;4.00;48.36;95788.28;5079662;28;20539;-74
2022/03/23 02:01:08;;;;;;;3.38;0.95;;;;;;;4.05;48.04;95787.50;5084221;28;20203;-74
2022/03/23 02:03:35;;;;;;;1.52;0.85;;;;;;;4.04;47.87;95793.94;5086631;28;20283;-73
2022/03/23 02:06:03;;;;;;;2.25;1.10;;;;;;;4.02;47.67;95794.19;5081719;28;20198;-75
2022/03/23 02:08:30;;;;;;;0.68;0.68;;;;;;;4.10;47.71;95796.38;5079412;28;20228;-74
2022/03/23 02:10:57;;;;;;;2.33;0.90;;;;;;;4.02;47.93;95790.69;5082911;28;20222;-73
2022/03/23 02:13:23;;;;;;;2.17;1.30;;;;;;;4.02;48.11;95791.50;5086050;28;20218;-75
2022/03/23 02:15:51;;;;;;;3.95;1.42;;;;;;;4.01;47.81;95800.63;5082446;28;20194;-75
2022/03/23 02:18:18;;;;;;;1.75;1.23;;;;;;;3.98;48.34;95798.44;5079098;28;20209;-74
2022/03/23 02:20:45;;;;;;;2.35;1.00;;;;;;;4.00;47.90;95793.63;5082367;28;20671;-75
2022/03/23 02:23:13;;;;;;;3.00;1.10;;;;;;;3.92;48.98;95791.44;5088584;28;20221;-75
2022/03/23 02:25:42;;;;;;;4.03;1.17;;;;;;;3.86;48.98;95793.28;5081624;28;20195;-74
2022/03/23 02:28:10;;;;;;;1.02;0.75;;;;;;;3.75;48.97;95796.13;5085451;28;20211;-75
2022/03/23 02:30:36;;;;;;;1.67;1.00;;;;;;;3.78;49.12;95792.94;5083134;28;20206;-74
2022/03/23 02:33:04;;;;;;;4.93;1.20;;;;;;;3.75;48.82;95801.50;5078808;28;20224;-74
2022/03/23 02:35:31;;;;;;;2.80;1.73;;;;;;;3.68;49.28;95803.59;5080307;28;20301;-74
2022/03/23 02:37:58;;;;;;;3.38;1.27;;;;;;;3.63;49.04;95798.19;5085614;28;20219;-76
2022/03/23 02:40:26;;;;;;;1.85;1.10;;;;;;;3.54;49.58;95801.31;5083849;28;20206;-78
2022/03/23 02:42:54;;;;;;;1.98;1.00;;;;;;;3.47;49.95;95800.72;5078096;28;20272;-75
2022/03/23 02:45:20;;;;;;;7.10;1.40;;;;;;;3.43;50.06;95804.13;5066615;28;20235;-75
2022/03/23 02:47:47;;;;;;;3.30;1.30;;;;;;;3.41;50.21;95800.94;5077549;28;20202;-75
2022/03/23 02:50:14;;;;;;;4.05;1.10;;;;;;;3.39;50.44;95808.41;5078302;28;20286;-75
2022/03/23 03:01:52;;;;;;;3.65;0.93;;;;;;;3.38;50.27;95804.91;5058290;28;20223;-78
2022/03/23 03:04:10;;;;;;;2.03;0.95;;;;;;;2.95;51.80;95819.19;5058698;28;20285;-75
2022/03/23 03:06:37;;;;;;;2.78;1.80;;;;;;;2.92;51.55;95824.22;5085405;28;20244;-76
2022/03/23 03:09:05;;;;;;;4.50;1.50;;;;;;;2.94;51.83;95808.72;5079133;28;20205;-75
2022/03/23 03:11:34;;;;;;;2.80;1.58;;;;;;;2.90;52.16;95818.31;5078103;28;20235;-75
2022/03/23 03:14:01;;;;;;;1.65;1.33;;;;;;;2.71;52.69;95818.63;5082996;28;20658;-75
2022/03/23 03:16:28;;;;;;;2.47;1.23;;;;;;;2.70;52.71;95816.19;5084205;28;20205;-74
2022/03/23 03:18:55;;;;;;;6.00;1.40;;;;;;;2.65;53.65;95816.94;5079736;28;20199;-74
2022/03/23 03:21:22;;;;;;;3.88;1.35;;;;;;;2.54;54.64;95817.88;5077565;28;20714;-75
2022/03/23 03:23:49;;;;;;;5.55;1.80;;;;;;;2.54;53.97;95827.75;5090727;28;20701;-74
2022/03/23 03:26:17;;;;;;;3.00;1.63;;;;;;;2.50;53.88;95827.44;5077688;28;20694;-75
2022/03/23 03:28:50;;;;;;;3.08;1.08;;;;;;;2.56;53.85;95826.47;5082226;28;20207;-72
2022/03/23 03:31:17;;;;;;;7.57;1.77;;;;;;;2.61;53.89;95817.69;5080499;28;20617;-74
2022/03/23 03:33:45;;;;;;;2.28;1.40;;;;;;;2.52;53.98;95825.31;5060804;28;20219;-74
2022/03/23 03:36:13;;;;;;;3.00;1.20;;;;;;;2.56;54.39;95820.31;5084331;28;20203;-75
2022/03/23 03:38:41;;;;;;;3.03;1.40;;;;;;;2.51;54.44;95818.38;5070861;28;20222;-74
2022/03/23 03:41:09;;;;;;;2.63;1.70;;;;;;;2.43;55.24;95816.94;5079174;28;20255;-74
2022/03/23 03:43:36;;;;;;;1.88;1.42;;;;;;;2.49;55.71;95815.13;5074533;28;20226;-76
2022/03/23 03:46:06;;;;;;;4.00;1.48;;;;;;;2.47;55.82;95811.88;5077305;28;20233;-74
2022/03/23 03:48:33;;;;;;;3.65;0.70;;;;;;;2.49;56.56;95815.13;5077689;28;20222;-75
2022/03/23 03:51:00;;;;;;;2.53;1.85;;;;;;;2.48;56.69;95824.19;5082895;28;20238;-74
2022/03/23 03:53:27;;;;;;;1.63;1.05;;;;;;;2.52;56.94;95814.63;5082448;28;20756;-76
2022/03/23 03:55:54;;;;;;;1.83;1.38;;;;;;;2.56;57.18;95818.44;5076745;28;20226;-75
2022/03/23 03:58:22;;;;;;;3.63;1.13;;;;;;;2.62;57.15;95814.75;5078157;28;20210;-75
2022/03/23 04:00:49;;;;;;;6.68;1.08;;;;;;;2.60;57.03;95816.88;5084083;28;20198;-78
2022/03/23 04:03:18;;;;;;;2.88;1.13;;;;;;;2.47;57.48;95814.56;5085792;28;20225;-75
2022/03/23 04:05:44;;;;;;;2.08;1.10;;;;;;;2.47;57.70;95819.91;5068265;28;20202;-74
2022/03/23 04:08:11;;;;;;;4.57;1.60;;;;;;;2.45;57.96;95824.72;5080567;28;20202;-75
2022/03/23 04:10:39;;;;;;;2.28;1.15;;;;;;;2.56;58.15;95815.75;5073609;28;20244;-77
2022/03/23 04:13:07;;;;;;;4.03;1.15;;;;;;;2.63;58.36;95818.25;5087976;28;20674;-74
2022/03/23 04:15:34;;;;;;;5.93;2.03;;;;;;;2.47;58.49;95827.94;5082223;28;20282;-75
2022/03/23 04:18:02;;;;;;;5.82;1.48;;;;;;;2.48;58.37;95824.19;5081071;28;20202;-74
2022/03/23 04:20:31;;;;;;;6.10;2.00;;;;;;;2.41;59.16;95824.38;5078675;28;20262;-74
2022/03/23 04:22:58;;;;;;;3.95;1.60;;;;;;;2.52;58.72;95828.00;5068741;28;20226;-73
2022/03/23 04:25:25;;;;;;;1.75;1.05;;;;;;;2.61;58.71;95829.19;5082708;28;20686;-74
2022/03/23 04:27:53;;;;;;;4.30;1.27;;;;;;;2.61;58.42;95829.19;5081035;28;20669;-75
2022/03/23 04:30:23;;;;;;;3.28;1.17;;;;;;;2.58;58.78;95819.00;5086149;28;20207;-75
2022/03/23 04:32:52;;;;;;;5.93;1.55;;;;;;;2.48;59.19;95824.19;5087924;28;20264;-74
2022/03/23 04:35:20;;;;;;;3.20;1.30;;;;;;;2.55;58.78;95830.19;5084325;28;20198;-75
2022/03/23 04:37:49;;;;;;;9.93;3.20;;;;;;;2.50;59.26;95827.44;5073450;28;20228;-75
2022/03/23 04:40:17;;;;;;;5.80;2.30;;;;;;;2.49;59.54;95831.16;5054162;28;20677;-75
2022/03/23 04:42:45;;;;;;;4.10;1.85;;;;;;;2.51;59.56;95823.72;5071623;28;20226;-75
2022/03/23 04:45:13;;;;;;;4.07;2.10;;;;;;;2.63;59.38;95827.06;5085571;28;20603;-75
2022/03/23 04:47:41;;;;;;;8.35;2.60;;;;;;;2.61;59.19;95829.19;5080828;28;20209;-74
2022/03/23 04:50:10;;;;;;;4.03;2.08;;;;;;;2.61;59.56;95833.72;5081727;28;20257;-77
2022/03/23 04:52:38;;;;;;;7.78;1.55;;;;;;;2.63;59.57;95827.06;5087204;28;20227;-76
2022/03/23 04:55:07;;;;;;;3.85;2.45;;;;;;;2.73;59.66;95829.88;5086551;28;20226;-76
2022/03/23 04:57:34;;;;;;;1.88;1.67;;;;;;;3.74;57.41;95827.47;5080315;28;20213;-76
2022/03/23 05:00:02;;;;;;;2.70;1.63;;;;;;;4.72;54.29;95810.97;5080631;28;20666;-75
2022/03/23 05:02:29;;;;;;;6.20;1.80;;;;;;;5.05;52.87;95813.28;5060212;28;20210;-77
2022/03/23 05:04:56;;;;;;;8.82;2.53;;;;;;;5.42;51.83;95810.41;5087675;28;20199;-77
2022/03/23 05:07:23;;;;;;;3.88;1.58;;;;;;;5.72;51.20;95810.47;5068003;28;20194;-77
2022/03/23 05:09:50;;;;;;;3.72;1.38;;;;;;;5.70;50.92;95807.22;5079701;28;20210;-76
2022/03/23 05:12:18;;;;;;;10.02;2.47;;;;;;;5.07;52.46;95803.06;5078239;28;20208;-77
2022/03/23 05:14:45;;;;;;;10.48;3.72;;;;;;;4.44;53.88;95820.22;5067473;28;20199;-77
2022/03/23 05:17:11;;;;;;;5.15;1.90;;;;;;;3.92;55.56;95823.63;5085059;28;20248;-79
2022/03/23 05:19:38;;;;;;;4.57;2.35;;;;;;;3.70;56.40;95830.91;5085676;28;20229;-78
2022/03/23 05:22:05;;;;;;;2.50;1.48;;;;;;;3.55;57.01;95832.38;5059805;28;20210;-75
2022/03/23 05:24:32;;;;;;;6.05;2.25;;;;;;;3.41;57.72;95836.56;5073070;28;20234;-82
2022/03/23 05:26:59;;;;;;;3.08;1.60;;;;;;;3.42;57.93;95838.16;5084023;28;20203;-78
2022/03/23 05:29:27;;;;;;;3.75;1.02;;;;;;;3.84;56.64;95832.09;5074365;28;20203;-81
2022/03/23 05:31:54;;;;;;;14.77;1.40;;;;;;;3.88;56.69;95833.22;5085131;28;20230;-78
2022/03/23 05:34:21;;;;;;;6.35;1.50;;;;;;;4.09;56.16;95835.00;5074771;28;20213;-78
2022/03/23 05:36:48;;;;;;;3.45;1.35;;;;;;;5.18;53.54;95825.41;5084794;28;20222;-79
2022/03/23 05:39:15;;;;;;;4.18;1.48;;;;;;;6.19;50.89;95820.16;5086497;28;20278;-83
2022/03/23 05:41:43;;;;;;;2.25;1.20;;;;;;;6.70;49.36;95820.06;5073053;28;20203;-78
2022/03/23 05:44:10;;;;;;;5.95;1.13;;;;;;;6.82;48.71;95823.28;5086209;28;20230;-77
2022/03/23 05:46:38;;;;;;;9.50;2.80;;;;;;;6.52;49.22;95834.13;5072982;28;20202;-80
2022/03/23 05:49:05;;;;;;;6.30;2.47;;;;;;;6.93;48.63;95824.84;5082952;28;20266;-80
2022/03/23 05:51:32;;;;;;;2.65;1.80;;;;;;;7.51;47.24;95817.06;5062268;28;20238;-77
2022/03/23 05:54:01;;;;;;;5.20;2.50;;;;;;;8.11;45.74;95818.50;5086057;28;20230;-77
2022/03/23 05:56:28;;;;;;;4.70;2.17;;;;;;;8.44;44.64;95811.50;5083105;28;20202;-77
2022/03/23 05:58:56;;;;;;;7.10;3.20;;;;;;;8.90;43.26;95808.31;5075200;28;20215;-85
2022/03/23 06:01:23;;;;;;;7.47;2.47;;;;;;;8.81;43.43;95820.84;5062135;28;20207;-78
2022/03/23 06:03:51;;;;;;;8.88;2.85;;;;;;;8.08;45.31;95820.94;5082427;28;20238;-77
2022/03/23 06:06:18;;;;;;;7.30;2.70;;;;;;;8.51;44.50;95822.75;5083682;28;20203;-77
2022/03/23 06:08:44;;;;;;;10.40;3.03;;;;;;;8.35;44.90;95817.78;5079252;28;20218;-80
2022/03/23 06:11:11;;;;;;;6.95;2.63;;;;;;;8.26;45.38;95831.06;5081377;28;20203;-79
2022/03/23 06:13:38;;;;;;;7.38;3.25;;;;;;;7.73;46.86;95839.03;5085785;28;20199;-83
2022/03/23 06:16:06;;;;;;;3.80;2.25;;;;;;;8.53;45.77;95820.59;5082551;28;20195;-82
2022/03/23 06:18:33;;;;;;;4.47;2.33;;;;;;;8.17;46.01;95832.78;5077796;28;20685;-83
2022/03/23 06:21:01;;;;;;;8.20;3.03;;;;;;;7.99;46.55;95809.16;5068837;28;20230;-79
2022/03/23 06:23:34;;;;;;;7.88;1.92;;;;;;;8.53;46.05;95815.19;5057129;28;20700;-80
2022/03/23 06:26:01;;;;;;;6.07;2.20;;;;;;;8.88;45.13;95826.72;5083848;28;20565;-82
2022/03/23 06:28:28;;;;;;;5.15;2.38;;;;;;;8.75;45.35;95827.38;5078721;28;20206;-80
2022/03/23 06:30:55;;;;;;;5.97;2.15;;;;;;;8.53;45.70;95826.00;5066484;28;20610;-87
2022/03/23 06:33:22;;;;;;;7.93;3.00;;;;;;;8.00;46.75;95832.34;5071332;28;20237;-85
2022/03/23 06:35:49;;;;;;;8.68;3.97;;;;;;;8.15;46.73;95829.53;5084801;28;20222;-79
2022/03/23 06:38:17;;;;;;;13.50;4.03;;;;;;;8.16;47.36;95817.66;5077271;28;20202;-78
2022/03/23 06:40:44;;;;;;;11.50;4.80;;;;;;;8.16;47.58;95814.97;5078029;28;20195;-77
2022/03/23 06:43:11;;;;;;;8.52;3.72;;;;;;;8.88;46.30;95821.31;5080299;28;20234;-77
2022/03/23 06:45:40;;;;;;;10.73;3.28;;;;;;;9.00;46.08;95807.41;5078549;28;20211;-78
2022/03/23 06:48:07;;;;;;;1.95;1.33;;;;;;;7.51;48.00;95814.34;5082786;28;20666;-75
2022/03/23 06:50:34;;;;;;;8.30;3.28;;;;;;;8.51;46.94;95833.56;5082876;28;20239;-81
2022/03/23 06:53:01;;;;;;;8.40;2.55;;;;;;;8.93;46.01;95833.97;5068154;28;20222;-79
2022/03/23 06:55:29;;;;;;;5.40;2.05;;;;;;;8.03;47.77;95829.09;5060356;28;20211;-79
2022/03/23 06:57:57;;;;;;;3.08;1.75;;;;;;;8.51;46.84;95828.16;5060613;28;20203;-75
2022/03/23 07:00:26;;;;;;;8.38;3.38;;;;;;;7.84;48.48;95835.16;5084871;28;20727;-76
2022/03/23 07:02:53;;;;;;;7.90;2.45;;;;;;;7.91;48.43;95829.47;5081048;28;20567;-75
2022/03/23 07:05:20;;;;;;;2.60;1.98;;;;;;;7.42;50.01;95837.56;5058079;28;20223;-78
2022/03/23 07:10:34;;;;;;;6.97;2.53;;;;;;;8.13;48.70;95835.22;5079195;28;20257;-78
2022/03/23 07:13:01;;;;;;;9.40;2.90;;;;;;;8.18;47.96;95837.09;5063995;28;20202;-81
2022/03/23 07:15:29;;;;;;;2.35;1.42;;;;;;;7.47;50.09;95835.66;5084426;28;20713;-77
2022/03/23 07:17:55;;;;;;;4.38;1.33;;;;;;;6.84;50.91;95852.63;5084139;28;20206;-79
2022/03/23 07:20:23;;;;;;;8.07;2.97;;;;;;;6.91;51.41;95837.00;5077805;28;20205;-77
2022/03/23 07:22:50;;;;;;;3.70;1.88;;;;;;;7.14;51.34;95847.94;5077238;28;20579;-78
2022/03/23 07:25:18;;;;;;;6.78;2.85;;;;;;;8.17;49.46;95840.88;5077337;28;20246;-78
2022/03/23 07:27:46;;;;;;;3.08;1.88;;;;;;;8.34;48.18;95843.16;5063273;28;20611;-79
2022/03/23 07:30:14;;;;;;;7.72;3.17;;;;;;;8.03;48.17;95845.28;5078501;28;20221;-79
2022/03/23 07:32:40;;;;;;;8.82;2.67;;;;;;;7.62;48.82;95837.47;5077613;28;20195;-79
2022/03/23 07:35:09;;;;;;;7.68;2.47;;;;;;;7.26;49.65;95844.91;5075727;28;20227;-81
2022/03/23 07:37:36;;;;;;;13.55;2.45;;;;;;;7.34;49.68;95857.03;5066076;28;20207;-82
2022/03/23 07:40:05;;;;;;;6.15;2.47;;;;;;;7.36;49.51;95841.41;5083054;28;20252;-80
2022/03/23 07:42:31;;;;;;;2.95;1.90;;;;;;;7.51;49.13;95846.72;5073472;28;20210;-80
2022/03/23 07:44:59;;;;;;;4.97;1.83;;;;;;;7.53;48.48;95844.50;5081426;28;20717;-79
2022/03/23 07:47:26;;;;;;;6.25;2.38;;;;;;;7.75;48.75;95847.63;5084139;28;20207;-76
2022/03/23 07:49:53;;;;;;;3.40;2.08;;;;;;;7.50;49.33;95845.09;5080521;28;20317;-79
2022/03/23 07:52:20;;;;;;;5.93;2.47;;;;;;;7.59;48.39;95842.63;5077343;28;20218;-78
2022/03/23 07:54:47;;;;;;;8.35;2.42;;;;;;;8.06;47.78;95847.44;5080840;28;20431;-78
2022/03/23 07:57:15;;;;;;;9.32;2.80;;;;;;;7.80;48.00;95847.59;5074615;28;20520;-78
2022/03/23 07:59:41;;;;;;;6.55;2.00;;;;;;;6.66;50.45;95856.72;5080752;28;20249;-78
2022/03/23 08:02:10;;;;;;;5.60;2.33;;;;;;;6.93;50.27;95849.09;5084495;28;20256;-79
2022/03/23 08:04:37;;;;;;;5.35;2.90;;;;;;;7.11;49.14;95839.59;5081280;28;20234;-77
2022/03/23 08:07:04;;;;;;;3.15;1.58;;;;;;;7.34;48.93;95851.63;5077474;28;20222;-78
2022/03/23 08:09:31;;;;;;;4.30;1.63;;;;;;;7.32;49.30;95860.00;5090619;28;20210;-82
2022/03/23 08:11:58;;;;;;;8.77;2.15;;;;;;;6.98;50.05;95853.66;5077313;28;20206;-79
2022/03/23 08:14:25;;;;;;;7.57;2.35;;;;;;;6.76;50.70;95856.69;5079138;28;20731;-80
2022/03/23 08:16:53;;;;;;;5.72;1.80;;;;;;;7.02;50.16;95844.75;5079566;28;20211;-78
2022/03/23 08:19:23;;;;;;;8.15;2.05;;;;;;;6.90;50.30;95840.75;5050395;28;20745;-78
2022/03/23 08:21:50;;;;;;;7.90;2.65;;;;;;;7.28;49.78;95839.25;5075141;28;20648;-77
2022/03/23 08:24:16;;;;;;;7.80;2.92;;;;;;;7.30;49.48;95835.22;5090079;28;20230;-80
2022/03/23 08:26:43;;;;;;;10.00;2.50;;;;;;;7.75;49.13;95830.66;5070813;28;20219;-77
2022/03/23 08:29:10;;;;;;;8.95;3.08;;;;;;;7.93;47.63;95837.25;5083481;28;20214;-79
2022/03/23 08:31:38;;;;;;;15.70;5.88;;;;;;;7.81;47.95;95843.81;5056931;28;20227;-80
2022/03/23 08:34:05;;;;;;;21.48;6.50;;;;;;;7.63;48.90;95838.28;5082853;28;20206;-78
2022/03/23 08:36:34;;;;;;;13.10;4.20;;;;;;;7.87;48.08;95851.88;5076518;28;20319;-76
2022/03/23 08:39:01;;;;;;;6.78;1.92;;;;;;;7.08;48.91;95848.25;5076683;28;20207;-78
2022/03/23 08:41:28;;;;;;;12.35;2.47;;;;;;;7.40;48.48;95845.13;5075459;28;20200;-78
2022/03/23 08:43:55;;;;;;;6.18;2.63;;;;;;;7.30;49.33;95848.69;5063583;28;20325;-76
2022/03/23 08:46:22;;;;;;;8.23;3.80;;;;;;;7.12;49.49;95850.09;5077617;28;20677;-81
2022/03/23 08:48:50;;;;;;;15.52;7.00;;;;;;;6.94;49.92;95841.84;5090279;28;20205;-78
2022/03/23 08:51:17;;;;;;;11.20;3.15;;;;;;;7.35;49.57;95842.47;5081655;28;20260;-78
2022/03/23 08:53:46;;;;;;;7.22;3.15;;;;;;;7.04;49.02;95853.38;5080406;28;20235;-79
2022/03/23 08:56:13;;;;;;;12.10;4.47;;;;;;;7.33;48.84;95850.03;5085294;28;20211;-78
2022/03/23 08:58:47;;;;;;;8.45;3.75;;;;;;;7.69;48.42;95843.34;5087303;28;20271;-78
2022/03/23 09:01:15;;;;;;;11.35;4.18;;;;;;;8.22;47.68;95832.72;5083215;28;20190;-79
2022/03/23 09:03:42;;;;;;;11.55;2.97;;;;;;;8.34;46.70;95838.56;5062846;28;20203;-79
2022/03/23 09:06:10;;;;;;;8.05;2.65;;;;;;;8.29;46.42;95827.81;5083093;28;20198;-77
2022/03/23 09:08:37;;;;;;;13.00;3.90;;;;;;;7.98;46.86;95826.44;5079583;28;20202;-79
2022/03/23 09:11:06;;;;;;;9.88;4.32;;;;;;;7.62;46.58;95832.09;5072294;28;20239;-80
2022/03/23 09:13:33;;;;;;;12.68;4.88;;;;;;;7.52;48.06;95826.72;5070950;28;20215;-78
2022/03/23 09:16:00;;;;;;;14.95;4.95;;;;;;;7.97;47.71;95830.22;5084317;28;20538;-78
2022/03/23 09:18:28;;;;;;;7.35;3.72;;;;;;;8.58;45.77;95841.34;5079598;28;20226;-79
2022/03/23 09:20:55;;;;;;;9.38;3.28;;;;;;;9.01;45.09;95828.75;5082109;28;20600;-78
2022/03/23 09:23:22;;;;;;;11.70;4.00;;;;;;;8.99;44.34;95832.81;5091184;28;20232;-78
2022/03/23 09:25:51;;;;;;;13.07;3.95;;;;;;;9.03;44.71;95829.22;5081719;28;20234;-78
2022/03/23 09:28:19;;;;;;;7.57;3.60;;;;;;;8.70;46.14;95819.34;5087294;28;20628;-78
2022/03/23 09:30:46;;;;;;;8.85;3.70;;;;;;;8.95;45.21;95815.56;5085122;28;20222;-78
2022/03/23 09:33:13;;;;;;;10.43;3.72;;;;;;;8.83;44.63;95814.06;5079886;28;20704;-78
2022/03/23 09:35:40;;;;;;;8.30;3.22;;;;;;;8.73;45.87;95813.38;5080303;28;20709;-78
2022/03/23 09:38:08;;;;;;;10.65;3.92;;;;;;;8.23;45.11;95826.22;5086620;28;20244;-80
2022/03/23 09:40:35;;;;;;;7.22;3.35;;;;;;;7.75;45.50;95827.94;5072672;28;20245;-76
2022/03/23 09:43:03;;;;;;;8.88;3.30;;;;;;;7.36;46.41;95819.81;5080319;28;20244;-77
2022/03/23 09:48:14;;;;;;;9.98;3.60;;;;;;;7.09;47.24;95825.63;5070616;28;20208;-79
2022/03/23 09:50:44;;;;;;;7.28;3.83;;;;;;;7.44;47.53;95814.66;5071815;28;20233;-78
2022/03/23 09:53:11;;;;;;;7.20;2.53;;;;;;;7.83;47.81;95811.97;5082261;28;20685;-77
2022/03/23 09:55:38;;;;;;;4.30;2.08;;;;;;;8.24;45.30;95810.84;5082211;28;20215;-78
2022/03/23 09:58:07;;;;;;;9.15;2.75;;;;;;;7.65;46.31;95815.34;5063270;28;20203;-78
2022/03/23 10:00:39;;;;;;;6.18;3.00;;;;;;;7.87;46.78;95792.53;5086200;28;20294;-78
2022/03/23 10:03:41;;;;;;;5.28;2.33;;;;;;;8.60;44.78;95797.84;5084451;28;20451;-78
2022/03/23 10:06:39;;;;;;;6.72;3.15;;;;;;;8.61;44.45;95791.38;5072231;28;20222;-78
2022/03/23 10:09:22;;;;;;;10.38;3.63;;;;;;;8.20;45.03;95797.09;5068008;28;20244;-79
2022/03/23 10:12:22;;;;;;;8.60;4.20;;;;;;;8.33;44.86;95796.50;5058852;28;20208;-78
2022/03/23 10:15:21;;;;;;;4.05;2.20;;;;;;;7.64;45.87;95802.94;5067481;28;20199;-76
2022/03/23 10:18:25;;;;;;;5.10;3.15;;;;;;;7.65;45.88;95796.47;5067634;28;20652;-78
2022/03/23 10:20:52;;;;;;;13.57;3.00;;;;;;;7.64;45.86;95784.06;5074071;28;20190;-75
2022/03/23 10:23:21;;;;;;;11.70;3.80;;;;;;;8.12;45.45;95793.13;5074013;28;20202;-76
2022/03/23 10:25:49;;;;;;;6.40;3.50;;;;;;;8.29;44.53;95792.72;5083812;28;20334;-79
2022/03/23 10:28:17;;;;;;;6.13;2.60;;;;;;;7.88;43.06;95802.22;5079292;28;20576;-77
2022/03/23 10:30:45;;;;;;;11.13;3.25;;;;;;;7.93;43.65;95786.00;5079399;28;20238;-78
2022/03/23 10:33:22;;;;;;;7.00;3.28;;;;;;;8.20;44.92;95772.81;5085963;28;20601;-76
2022/03/23 10:35:49;;;;;;;7.57;3.20;;;;;;;8.73;42.08;95772.84;5086199;28;20228;-77
2022/03/23 10:38:18;;;;;;;9.70;3.38;;;;;;;8.65;41.72;95781.56;5072013;28;20209;-80
2022/03/23 10:40:46;;;;;;;8.40;3.28;;;;;;;8.72;42.01;95763.16;5083222;28;20211;-73
2022/03/23 10:43:16;;;;;;;6.38;2.83;;;;;;;8.72;41.07;95773.94;5068369;28;20710;-82
2022/03/23 10:45:44;;;;;;;8.52;3.83;;;;;;;8.65;40.71;95768.06;5075918;28;20285;-79
2022/03/23 10:48:13;;;;;;;9.35;3.67;;;;;;;9.20;40.42;95750.38;5080506;28;20203;-78
2022/03/23 10:50:52;;;;;;;12.48;2.83;;;;;;;8.56;40.20;95759.81;5061817;28;20243;-80
2022/03/23 10:53:32;;;;;;;4.65;1.95;;;;;;;8.70;40.14;95779.63;5082698;28;20656;-73
2022/03/23 10:55:59;;;;;;;6.35;3.13;;;;;;;8.77;41.57;95771.16;5077975;28;20198;-72
2022/03/23 10:58:28;;;;;;;7.53;3.40;;;;;;;8.83;40.35;95743.81;5078315;28;20199;-76
2022/03/23 11:00:57;;;;;;;8.18;3.35;;;;;;;9.23;38.78;95758.72;5084763;28;20222;-80
2022/03/23 11:03:39;;;;;;;6.07;2.72;;;;;;;8.79;39.74;95747.38;5085139;28;20615;-80
2022/03/23 11:06:09;;;;;;;7.72;2.97;;;;;;;8.83;39.00;95746.53;5081139;28;20644;-80
2022/03/23 11:08:36;;;;;;;7.32;2.53;;;;;;;8.82;38.17;95747.63;5078753;28;20217;-78
2022/03/23 11:16:38;;;;;;;13.40;2.47;;;;;;;8.80;38.81;95739.00;5059057;28;20293;-74
2022/03/23 11:19:08;;;;;;;5.88;2.20;;;;;;;8.73;38.82;95724.22;5080318;28;20222;-77
2022/03/23 11:21:57;;;;;;;6.43;2.53;;;;;;;8.89;39.73;95720.22;5077966;28;20195;-77
2022/03/23 11:24:24;;;;;;;5.03;2.92;;;;;;;8.92;39.81;95714.25;5090457;28;20281;-76
2022/03/23 11:26:52;;;;;;;10.40;2.60;;;;;;;9.24;37.54;95721.66;5077693;28;20216;-75
2022/03/23 11:29:19;;;;;;;8.18;2.47;;;;;;;8.81;38.18;95718.19;5077370;28;20203;-74
2022/03/23 11:31:46;;;;;;;6.13;3.10;;;;;;;9.16;38.27;95715.00;5083973;28;20211;-77
2022/03/23 11:34:15;;;;;;;11.65;3.00;;;;;;;9.31;38.71;95713.19;5084065;28;20222;-76
2022/03/23 11:36:44;;;;;;;5.60;2.83;;;;;;;8.92;40.25;95714.25;5078252;28;20255;-77
2022/03/23 11:39:12;;;;;;;4.88;2.13;;;;;;;8.94;40.52;95700.44;5077513;28;20195;-73
2022/03/23 11:41:41;;;;;;;7.53;3.33;;;;;;;9.05;40.49;95686.50;5073596;28;20254;-77
2022/03/23 11:44:10;;;;;;;6.18;3.00;;;;;;;9.49;40.19;95694.25;5069443;28;20246;-79
2022/03/23 11:46:37;;;;;;;7.63;2.80;;;;;;;9.63;39.08;95692.41;5081280;28;20226;-78
2022/03/23 11:49:19;;;;;;;6.45;3.00;;;;;;;9.68;38.80;95705.06;5073111;28;20230;-77
2022/03/23 11:52:16;;;;;;;8.20;2.97;;;;;;;9.35;39.18;95685.25;5078927;28;20225;-77
2022/03/23 11:58:18;;;;;;;4.40;2.35;;;;;;;9.27;35.59;95689.44;5077616;28;20194;-81
2022/03/23 12:00:50;;;;;;;3.63;1.98;;;;;;;9.16;36.50;95704.19;5072515;28;20236;-72
2022/03/23 12:03:51;;;;;;;7.40;2.40;;;;;;;9.32;37.44;95676.94;5078189;28;20293;-81
2022/03/23 12:06:19;;;;;;;9.77;2.22;;;;;;;9.38;36.61;95683.88;5062000;28;20701;-80
2022/03/23 12:08:55;;;;;;;8.45;2.50;;;;;;;9.27;37.75;95681.34;5084244;28;20271;-77
2022/03/23 12:11:39;;;;;;;8.73;2.95;;;;;;;9.40;38.42;95676.28;5083425;28;20189;-77